createdAt,value
2022-12-12T00:00:41.897Z,1002.51
2022-12-12T00:02:36.163Z,1002.52
2022-12-12T00:03:36.096Z,1002.55
2022-12-12T00:05:30.131Z,1002.60
2022-12-12T00:06:30.112Z,1002.60
2022-12-12T00:08:24.220Z,1002.61
2022-12-12T00:09:24.166Z,1002.65
2022-12-12T00:11:18.348Z,1002.61
2022-12-12T00:12:18.323Z,1002.65
2022-12-12T00:14:12.465Z,1002.69
2022-12-12T00:15:18.397Z,1002.69
2022-12-12T00:17:06.532Z,1002.75
2022-12-12T00:18:06.507Z,1002.72
2022-12-12T00:20:00.642Z,1002.76
2022-12-12T00:21:00.623Z,1002.76
2022-12-12T00:22:54.709Z,1002.77
2022-12-12T00:23:54.686Z,1002.74
2022-12-12T00:25:48.936Z,1002.73
2022-12-12T00:26:48.921Z,1002.78
2022-12-12T00:28:43.048Z,1002.78
2022-12-12T00:29:43.019Z,1002.78
2022-12-12T00:31:37.236Z,1002.78
2022-12-12T00:32:37.128Z,1002.76
2022-12-12T00:34:31.293Z,1002.79
2022-12-12T00:35:31.270Z,1002.83
2022-12-12T00:37:25.410Z,1002.78
2022-12-12T00:38:25.390Z,1002.78
2022-12-12T00:40:19.483Z,1002.78
2022-12-12T00:41:19.452Z,1002.77
2022-12-12T00:43:13.778Z,1002.82
2022-12-12T00:44:13.749Z,1002.78
2022-12-12T00:46:07.909Z,1002.79
2022-12-12T00:47:07.802Z,1002.81
2022-12-12T00:49:01.881Z,1002.74
2022-12-12T00:50:01.859Z,1002.85
2022-12-12T00:51:56.226Z,1002.81
2022-12-12T00:52:56.211Z,1002.78
2022-12-12T00:54:50.466Z,1002.81
2022-12-12T00:55:50.451Z,1002.81
2022-12-12T00:57:44.666Z,1002.85
2022-12-12T00:58:44.561Z,1002.86
2022-12-12T01:00:38.318Z,1002.83
2022-12-12T01:01:38.331Z,1002.82
2022-12-12T01:03:32.441Z,1002.88
2022-12-12T01:04:32.415Z,1002.89
2022-12-12T01:06:26.548Z,1002.88
2022-12-12T01:07:26.462Z,1002.88
2022-12-12T01:09:20.556Z,1002.87
2022-12-12T01:10:20.539Z,1002.92
2022-12-12T01:12:14.664Z,1002.91
2022-12-12T01:13:14.637Z,1002.92
2022-12-12T01:15:08.729Z,1002.94
2022-12-12T01:16:08.744Z,1002.98
2022-12-12T01:18:02.860Z,1003.01
2022-12-12T01:19:02.832Z,1003.01
2022-12-12T01:20:56.902Z,1003.02
2022-12-12T01:21:56.886Z,1003.03
2022-12-12T01:23:50.976Z,1003.07
2022-12-12T01:24:50.953Z,1003.01
2022-12-12T01:26:45.053Z,1003.05
2022-12-12T01:27:45.026Z,1003.05
2022-12-12T01:29:39.156Z,1003.09
2022-12-12T01:30:39.135Z,1003.08
2022-12-12T01:32:33.343Z,1003.14
2022-12-12T01:33:33.313Z,1003.14
2022-12-12T01:35:27.521Z,1003.16
2022-12-12T01:36:27.506Z,1003.12
2022-12-12T01:38:21.630Z,1003.13
2022-12-12T01:39:21.606Z,1003.17
2022-12-12T01:41:15.715Z,1003.18
2022-12-12T01:42:15.698Z,1003.20
2022-12-12T01:44:09.804Z,1003.22
2022-12-12T01:45:09.965Z,1003.24
2022-12-12T01:47:04.125Z,1003.26
2022-12-12T01:48:05.550Z,1003.23
2022-12-12T01:49:58.216Z,1003.25
2022-12-12T01:50:58.205Z,1003.34
2022-12-12T01:52:52.303Z,1003.30
2022-12-12T01:53:52.279Z,1003.32
2022-12-12T01:55:46.481Z,1003.30
2022-12-12T01:56:46.456Z,1003.28
2022-12-12T01:58:40.655Z,1003.34
2022-12-12T01:59:40.631Z,1003.34
2022-12-12T02:01:34.846Z,1003.31
2022-12-12T02:02:34.824Z,1003.33
2022-12-12T02:04:28.911Z,1003.36
2022-12-12T02:05:28.883Z,1003.33
2022-12-12T02:07:23.013Z,1003.36
2022-12-12T02:08:23.009Z,1003.33
2022-12-12T02:10:17.045Z,1003.35
2022-12-12T02:11:17.036Z,1003.31
2022-12-12T02:13:11.305Z,1003.37
2022-12-12T02:14:11.289Z,1003.35
2022-12-12T02:16:05.363Z,1003.37
2022-12-12T02:17:05.313Z,1003.34
2022-12-12T02:18:59.451Z,1003.39
2022-12-12T02:19:59.424Z,1003.41
2022-12-12T02:21:53.523Z,1003.40
2022-12-12T02:22:53.505Z,1003.38
2022-12-12T02:24:47.624Z,1003.35
2022-12-12T02:25:47.599Z,1003.35
2022-12-12T02:27:41.691Z,1003.31
2022-12-12T02:28:41.667Z,1003.30
2022-12-12T02:30:35.776Z,1003.32
2022-12-12T02:31:35.796Z,1003.33
2022-12-12T02:33:29.865Z,1003.31
2022-12-12T02:34:29.842Z,1003.33
2022-12-12T02:36:23.939Z,1003.27
2022-12-12T02:37:23.920Z,1003.29
2022-12-12T02:39:18.025Z,1003.32
2022-12-12T02:40:17.999Z,1003.32
2022-12-12T02:42:12.218Z,1003.24
2022-12-12T02:43:12.182Z,1003.29
2022-12-12T02:45:06.277Z,1003.24
2022-12-12T02:46:06.255Z,1003.23
2022-12-12T02:48:00.329Z,1003.22
2022-12-12T02:49:00.308Z,1003.25
2022-12-12T02:50:54.439Z,1003.22
2022-12-12T02:51:54.424Z,1003.23
2022-12-12T02:53:48.507Z,1003.20
2022-12-12T02:54:48.482Z,1003.21
2022-12-12T02:56:42.583Z,1003.24
2022-12-12T02:57:42.566Z,1003.26
2022-12-12T02:59:36.762Z,1003.27
2022-12-12T03:00:36.725Z,1003.29
2022-12-12T03:02:30.997Z,1003.31
2022-12-12T03:03:30.966Z,1003.32
2022-12-12T03:05:25.197Z,1003.31
2022-12-12T03:06:25.183Z,1003.30
2022-12-12T03:08:19.486Z,1003.32
2022-12-12T03:09:19.440Z,1003.30
2022-12-12T03:11:13.797Z,1003.32
2022-12-12T03:12:13.793Z,1003.29
2022-12-12T03:14:07.897Z,1003.32
2022-12-12T03:15:07.876Z,1003.30
2022-12-12T03:17:02.015Z,1003.32
2022-12-12T03:18:02.003Z,1003.29
2022-12-12T03:19:56.098Z,1003.29
2022-12-12T03:20:56.088Z,1003.31
2022-12-12T03:22:49.834Z,1003.33
2022-12-12T03:23:49.807Z,1003.33
2022-12-12T03:25:43.913Z,1003.30
2022-12-12T03:26:43.892Z,1003.26
2022-12-12T03:28:38.743Z,1003.25
2022-12-12T03:29:38.713Z,1003.31
2022-12-12T03:30:38.698Z,1003.27
2022-12-12T03:31:38.732Z,1003.31
2022-12-12T03:32:38.678Z,1003.35
2022-12-12T03:33:38.663Z,1003.32
2022-12-12T03:34:38.655Z,1003.36
2022-12-12T03:35:38.637Z,1003.33
2022-12-12T03:36:38.628Z,1003.32
2022-12-12T03:37:38.613Z,1003.34
2022-12-12T03:38:38.601Z,1003.32
2022-12-12T03:39:38.590Z,1003.34
2022-12-12T03:40:38.575Z,1003.32
2022-12-12T03:41:38.565Z,1003.32
2022-12-12T03:42:38.555Z,1003.32
2022-12-12T03:43:38.547Z,1003.32
2022-12-12T03:44:41.623Z,1003.31
2022-12-12T03:45:38.545Z,1003.27
2022-12-12T03:46:38.499Z,1003.27
2022-12-12T03:47:38.489Z,1003.25
2022-12-12T03:48:38.473Z,1003.30
2022-12-12T03:49:38.459Z,1003.32
2022-12-12T03:50:38.448Z,1003.36
2022-12-12T03:51:38.433Z,1003.34
2022-12-12T03:52:38.424Z,1003.41
2022-12-12T03:53:38.414Z,1003.38
2022-12-12T03:54:38.398Z,1003.41
2022-12-12T03:55:38.385Z,1003.41
2022-12-12T03:56:38.371Z,1003.36
2022-12-12T03:57:38.364Z,1003.38
2022-12-12T03:58:38.351Z,1003.36
2022-12-12T03:59:38.336Z,1003.40
2022-12-12T04:00:38.323Z,1003.41
2022-12-12T04:01:38.308Z,1003.44
2022-12-12T04:02:38.386Z,1003.40
2022-12-12T04:03:38.290Z,1003.38
2022-12-12T04:04:38.274Z,1003.42
2022-12-12T04:05:38.256Z,1003.39
2022-12-12T04:06:38.250Z,1003.41
2022-12-12T04:07:38.234Z,1003.44
2022-12-12T04:08:38.217Z,1003.42
2022-12-12T04:09:38.206Z,1003.45
2022-12-12T04:10:38.195Z,1003.47
2022-12-12T04:11:38.187Z,1003.45
2022-12-12T04:12:38.174Z,1003.46
2022-12-12T04:13:38.162Z,1003.54
2022-12-12T04:14:38.142Z,1003.48
2022-12-12T04:15:38.132Z,1003.49
2022-12-12T04:16:38.170Z,1003.48
2022-12-12T04:17:38.108Z,1003.50
2022-12-12T04:18:38.097Z,1003.49
2022-12-12T04:19:38.130Z,1003.51
2022-12-12T04:20:38.079Z,1003.51
2022-12-12T04:21:38.058Z,1003.49
2022-12-12T04:22:38.048Z,1003.50
2022-12-12T04:23:38.029Z,1003.46
2022-12-12T04:24:38.018Z,1003.41
2022-12-12T04:25:38.008Z,1003.44
2022-12-12T04:26:37.992Z,1003.46
2022-12-12T04:27:37.987Z,1003.44
2022-12-12T04:28:37.976Z,1003.44
2022-12-12T04:29:37.958Z,1003.50
2022-12-12T04:30:37.948Z,1003.46
2022-12-12T04:31:37.963Z,1003.49
2022-12-12T04:32:37.918Z,1003.52
2022-12-12T04:33:37.903Z,1003.55
2022-12-12T04:34:37.895Z,1003.52
2022-12-12T04:35:37.882Z,1003.57
2022-12-12T04:36:37.867Z,1003.52
2022-12-12T04:37:37.857Z,1003.55
2022-12-12T04:38:37.839Z,1003.51
2022-12-12T04:39:37.828Z,1003.56
2022-12-12T04:40:37.815Z,1003.58
2022-12-12T04:41:37.807Z,1003.57
2022-12-12T04:42:37.799Z,1003.60
2022-12-12T04:43:37.779Z,1003.56
2022-12-12T04:44:37.773Z,1003.59
2022-12-12T04:45:37.810Z,1003.61
2022-12-12T04:46:37.744Z,1003.59
2022-12-12T04:47:37.727Z,1003.61
2022-12-12T04:48:38.666Z,1003.59
2022-12-12T04:49:37.702Z,1003.59
2022-12-12T04:50:37.692Z,1003.63
2022-12-12T04:51:37.678Z,1003.62
2022-12-12T04:52:37.669Z,1003.66
2022-12-12T04:53:37.659Z,1003.65
2022-12-12T04:54:37.638Z,1003.68
2022-12-12T04:55:37.624Z,1003.69
2022-12-12T04:56:37.615Z,1003.72
2022-12-12T04:57:37.592Z,1003.72
2022-12-12T04:58:37.593Z,1003.69
2022-12-12T04:59:37.570Z,1003.71
2022-12-12T05:00:37.564Z,1003.69
2022-12-12T05:01:37.583Z,1003.71
2022-12-12T05:02:37.653Z,1003.68
2022-12-12T05:03:37.524Z,1003.67
2022-12-12T05:04:37.507Z,1003.65
2022-12-12T05:05:37.497Z,1003.74
2022-12-12T05:06:37.488Z,1003.70
2022-12-12T05:07:40.045Z,1003.74
2022-12-12T05:08:37.464Z,1003.75
2022-12-12T05:09:37.438Z,1003.71
2022-12-12T05:10:37.441Z,1003.72
2022-12-12T05:11:37.421Z,1003.74
2022-12-12T05:12:37.414Z,1003.71
2022-12-12T05:13:37.395Z,1003.72
2022-12-12T05:14:37.391Z,1003.73
2022-12-12T05:15:41.824Z,1003.72
2022-12-12T05:16:37.389Z,1003.72
2022-12-12T05:17:37.347Z,1003.71
2022-12-12T05:18:37.333Z,1003.74
2022-12-12T05:19:37.317Z,1003.74
2022-12-12T05:20:37.311Z,1003.78
2022-12-12T05:21:37.296Z,1003.79
2022-12-12T05:22:37.290Z,1003.79
2022-12-12T05:23:37.272Z,1003.77
2022-12-12T05:24:37.258Z,1003.79
2022-12-12T05:25:37.237Z,1003.83
2022-12-12T05:26:37.232Z,1003.80
2022-12-12T05:27:37.218Z,1003.80
2022-12-12T05:28:37.207Z,1003.79
2022-12-12T05:29:37.188Z,1003.81
2022-12-12T05:30:37.216Z,1003.78
2022-12-12T05:31:37.171Z,1003.77
2022-12-12T05:32:37.154Z,1003.76
2022-12-12T05:33:37.146Z,1003.73
2022-12-12T05:34:37.136Z,1003.73
2022-12-12T05:35:37.114Z,1003.80
2022-12-12T05:36:37.104Z,1003.74
2022-12-12T05:37:37.090Z,1003.77
2022-12-12T05:38:37.079Z,1003.81
2022-12-12T05:39:37.059Z,1003.80
2022-12-12T05:40:37.057Z,1003.83
2022-12-12T05:41:37.040Z,1003.87
2022-12-12T05:42:37.030Z,1003.86
2022-12-12T05:43:37.017Z,1003.84
2022-12-12T05:44:37.004Z,1003.83
2022-12-12T05:45:36.992Z,1003.84
2022-12-12T05:46:36.980Z,1003.86
2022-12-12T05:47:36.967Z,1003.90
2022-12-12T05:48:36.959Z,1003.91
2022-12-12T05:49:36.937Z,1003.93
2022-12-12T05:50:36.931Z,1003.92
2022-12-12T05:51:36.915Z,1003.94
2022-12-12T05:52:36.908Z,1003.91
2022-12-12T05:53:42.878Z,1003.92
2022-12-12T05:54:36.875Z,1003.93
2022-12-12T05:55:36.861Z,1003.95
2022-12-12T05:56:36.851Z,1003.92
2022-12-12T05:57:36.841Z,1003.98
2022-12-12T05:58:36.838Z,1003.98
2022-12-12T05:59:36.818Z,1003.97
2022-12-12T06:00:36.805Z,1003.96
2022-12-12T06:01:36.787Z,1003.98
2022-12-12T06:02:36.783Z,1004.01
2022-12-12T06:03:36.837Z,1003.96
2022-12-12T06:04:36.759Z,1003.98
2022-12-12T06:05:36.742Z,1003.99
2022-12-12T06:06:36.723Z,1003.97
2022-12-12T06:07:36.711Z,1003.99
2022-12-12T06:08:36.746Z,1003.95
2022-12-12T06:09:36.693Z,1003.98
2022-12-12T06:10:36.679Z,1003.99
2022-12-12T06:11:36.673Z,1003.98
2022-12-12T06:12:36.651Z,1004.01
2022-12-12T06:13:36.641Z,1004.01
2022-12-12T06:14:36.627Z,1003.99
2022-12-12T06:15:36.655Z,1004.00
2022-12-12T06:16:36.600Z,1004.03
2022-12-12T06:17:36.593Z,1004.05
2022-12-12T06:18:36.573Z,1004.04
2022-12-12T06:19:36.559Z,1004.03
2022-12-12T06:20:36.559Z,1004.05
2022-12-12T06:21:36.530Z,1004.12
2022-12-12T06:22:36.519Z,1004.04
2022-12-12T06:23:36.509Z,1004.08
2022-12-12T06:24:36.496Z,1004.07
2022-12-12T06:25:36.481Z,1004.07
2022-12-12T06:26:36.473Z,1004.09
2022-12-12T06:27:36.459Z,1004.07
2022-12-12T06:28:36.444Z,1004.06
2022-12-12T06:29:36.430Z,1004.06
2022-12-12T06:30:36.421Z,1004.08
2022-12-12T06:31:36.448Z,1004.11
2022-12-12T06:32:36.406Z,1004.08
2022-12-12T06:33:36.371Z,1004.06
2022-12-12T06:34:36.372Z,1004.10
2022-12-12T06:35:36.357Z,1004.08
2022-12-12T06:36:36.353Z,1004.10
2022-12-12T06:37:36.344Z,1004.11
2022-12-12T06:38:36.319Z,1004.15
2022-12-12T06:39:36.300Z,1004.12
2022-12-12T06:40:36.299Z,1004.12
2022-12-12T06:41:36.278Z,1004.11
2022-12-12T06:42:36.270Z,1004.10
2022-12-12T06:43:36.251Z,1004.10
2022-12-12T06:44:36.239Z,1004.12
2022-12-12T06:45:36.233Z,1004.10
2022-12-12T06:46:36.259Z,1004.13
2022-12-12T06:47:36.195Z,1004.12
2022-12-12T06:48:36.191Z,1004.10
2022-12-12T06:49:36.178Z,1004.15
2022-12-12T06:50:36.167Z,1004.16
2022-12-12T06:51:36.154Z,1004.14
2022-12-12T06:52:36.133Z,1004.15
2022-12-12T06:53:36.132Z,1004.13
2022-12-12T06:54:36.109Z,1004.18
2022-12-12T06:55:36.101Z,1004.17
2022-12-12T06:56:36.083Z,1004.17
2022-12-12T06:57:36.072Z,1004.18
2022-12-12T06:58:36.060Z,1004.17
2022-12-12T06:59:36.049Z,1004.16
2022-12-12T07:00:36.039Z,1004.18
2022-12-12T07:01:36.072Z,1004.22
2022-12-12T07:02:36.088Z,1004.24
2022-12-12T07:03:35.999Z,1004.25
2022-12-12T07:04:35.992Z,1004.21
2022-12-12T07:05:35.972Z,1004.25
2022-12-12T07:06:35.960Z,1004.22
2022-12-12T07:07:35.939Z,1004.17
2022-12-12T07:08:35.938Z,1004.23
2022-12-12T07:09:35.926Z,1004.24
2022-12-12T07:10:35.902Z,1004.25
2022-12-12T07:11:35.896Z,1004.29
2022-12-12T07:12:35.884Z,1004.27
2022-12-12T07:13:35.875Z,1004.31
2022-12-12T07:14:35.857Z,1004.32
2022-12-12T07:15:35.898Z,1004.33
2022-12-12T07:16:35.830Z,1004.32
2022-12-12T07:17:35.817Z,1004.36
2022-12-12T07:18:35.808Z,1004.31
2022-12-12T07:19:35.789Z,1004.29
2022-12-12T07:20:35.781Z,1004.32
2022-12-12T07:21:35.768Z,1004.35
2022-12-12T07:22:35.752Z,1004.33
2022-12-12T07:23:35.736Z,1004.33
2022-12-12T07:24:35.737Z,1004.33
2022-12-12T07:25:35.717Z,1004.33
2022-12-12T07:26:35.706Z,1004.34
2022-12-12T07:27:35.691Z,1004.31
2022-12-12T07:28:35.673Z,1004.30
2022-12-12T07:29:35.670Z,1004.28
2022-12-12T07:30:35.652Z,1004.29
2022-12-12T07:31:35.707Z,1004.30
2022-12-12T07:32:35.621Z,1004.30
2022-12-12T07:33:43.232Z,1004.33
2022-12-12T07:34:35.613Z,1004.36
2022-12-12T07:35:35.587Z,1004.35
2022-12-12T07:36:35.575Z,1004.33
2022-12-12T07:37:35.565Z,1004.37
2022-12-12T07:38:35.557Z,1004.36
2022-12-12T07:39:35.537Z,1004.33
2022-12-12T07:40:35.542Z,1004.36
2022-12-12T07:41:35.529Z,1004.37
2022-12-12T07:42:35.498Z,1004.38
2022-12-12T07:43:41.376Z,1004.39
2022-12-12T07:44:35.479Z,1004.40
2022-12-12T07:45:35.463Z,1004.44
2022-12-12T07:46:35.519Z,1004.43
2022-12-12T07:47:35.431Z,1004.45
2022-12-12T07:48:35.441Z,1004.43
2022-12-12T07:49:35.416Z,1004.44
2022-12-12T07:50:35.398Z,1004.42
2022-12-12T07:51:35.386Z,1004.50
2022-12-12T07:52:35.374Z,1004.47
2022-12-12T07:53:35.360Z,1004.47
2022-12-12T07:54:35.350Z,1004.55
2022-12-12T07:55:35.345Z,1004.53
2022-12-12T07:56:35.322Z,1004.54
2022-12-12T07:57:35.301Z,1004.51
2022-12-12T07:58:35.297Z,1004.49
2022-12-12T07:59:35.302Z,1004.53
2022-12-12T08:00:35.277Z,1004.54
2022-12-12T08:01:35.265Z,1004.56
2022-12-12T08:02:35.246Z,1004.52
2022-12-12T08:03:35.235Z,1004.53
2022-12-12T08:04:35.281Z,1004.57
2022-12-12T08:05:35.206Z,1004.54
2022-12-12T08:06:35.192Z,1004.53
2022-12-12T08:07:35.188Z,1004.54
2022-12-12T08:08:35.169Z,1004.56
2022-12-12T08:09:35.148Z,1004.55
2022-12-12T08:10:35.155Z,1004.54
2022-12-12T08:11:35.134Z,1004.58
2022-12-12T08:12:35.118Z,1004.56
2022-12-12T08:13:35.106Z,1004.57
2022-12-12T08:14:35.092Z,1004.54
2022-12-12T08:15:35.079Z,1004.59
2022-12-12T08:16:35.136Z,1004.58
2022-12-12T08:17:35.051Z,1004.60
2022-12-12T08:18:35.038Z,1004.65
2022-12-12T08:19:35.028Z,1004.65
2022-12-12T08:20:35.016Z,1004.60
2022-12-12T08:21:35.001Z,1004.64
2022-12-12T08:22:34.993Z,1004.65
2022-12-12T08:23:34.981Z,1004.62
2022-12-12T08:24:34.965Z,1004.67
2022-12-12T08:25:34.949Z,1004.67
2022-12-12T08:26:34.941Z,1004.68
2022-12-12T08:27:34.931Z,1004.72
2022-12-12T08:28:34.918Z,1004.67
2022-12-12T08:29:34.901Z,1004.71
2022-12-12T08:30:34.896Z,1004.69
2022-12-12T08:31:34.936Z,1004.74
2022-12-12T08:32:34.861Z,1004.69
2022-12-12T08:33:34.853Z,1004.70
2022-12-12T08:34:34.835Z,1004.69
2022-12-12T08:35:34.825Z,1004.69
2022-12-12T08:36:34.820Z,1004.72
2022-12-12T08:37:34.802Z,1004.68
2022-12-12T08:38:34.783Z,1004.68
2022-12-12T08:39:34.774Z,1004.65
2022-12-12T08:40:34.765Z,1004.69
2022-12-12T08:41:34.744Z,1004.68
2022-12-12T08:42:34.727Z,1004.67
2022-12-12T08:43:34.722Z,1004.70
2022-12-12T08:44:34.707Z,1004.70
2022-12-12T08:45:34.711Z,1004.71
2022-12-12T08:46:34.732Z,1004.74
2022-12-12T08:47:34.668Z,1004.73
2022-12-12T08:48:34.654Z,1004.77
2022-12-12T08:49:34.645Z,1004.78
2022-12-12T08:50:34.632Z,1004.79
2022-12-12T08:51:34.621Z,1004.77
2022-12-12T08:52:34.605Z,1004.82
2022-12-12T08:53:34.594Z,1004.83
2022-12-12T08:54:34.578Z,1004.84
2022-12-12T08:55:34.577Z,1004.86
2022-12-12T08:56:34.554Z,1004.86
2022-12-12T08:57:34.544Z,1004.88
2022-12-12T08:58:34.531Z,1004.87
2022-12-12T08:59:34.518Z,1004.84
2022-12-12T09:00:34.508Z,1004.82
2022-12-12T09:01:34.560Z,1004.85
2022-12-12T09:02:34.577Z,1004.82
2022-12-12T09:03:34.470Z,1004.84
2022-12-12T09:04:34.459Z,1004.85
2022-12-12T09:05:34.446Z,1004.87
2022-12-12T09:06:34.429Z,1004.84
2022-12-12T09:07:34.424Z,1004.84
2022-12-12T09:08:34.456Z,1004.86
2022-12-12T09:09:34.391Z,1004.90
2022-12-12T09:10:34.385Z,1004.89
2022-12-12T09:11:34.385Z,1004.93
2022-12-12T09:12:39.879Z,1004.92
2022-12-12T09:13:34.344Z,1004.97
2022-12-12T09:14:34.334Z,1004.95
2022-12-12T09:15:34.323Z,1004.97
2022-12-12T09:16:34.400Z,1004.99
2022-12-12T09:17:34.295Z,1004.98
2022-12-12T09:18:34.282Z,1004.98
2022-12-12T09:19:34.265Z,1005.03
2022-12-12T09:20:34.256Z,1005.06
2022-12-12T09:21:34.247Z,1005.06
2022-12-12T09:22:34.235Z,1005.05
2022-12-12T09:23:34.229Z,1005.06
2022-12-12T09:24:34.208Z,1005.12
2022-12-12T09:25:34.877Z,1005.06
2022-12-12T09:26:34.176Z,1005.08
2022-12-12T09:27:34.167Z,1005.11
2022-12-12T09:28:34.161Z,1005.10
2022-12-12T09:29:34.151Z,1005.08
2022-12-12T09:30:34.129Z,1005.13
2022-12-12T09:31:34.198Z,1005.17
2022-12-12T09:32:34.110Z,1005.13
2022-12-12T09:33:34.097Z,1005.14
2022-12-12T09:34:34.083Z,1005.13
2022-12-12T09:35:34.076Z,1005.12
2022-12-12T09:36:34.068Z,1005.16
2022-12-12T09:37:34.041Z,1005.19
2022-12-12T09:38:34.038Z,1005.19
2022-12-12T09:39:34.020Z,1005.18
2022-12-12T09:40:34.012Z,1005.17
2022-12-12T09:41:33.996Z,1005.23
2022-12-12T09:42:33.981Z,1005.21
2022-12-12T09:43:33.978Z,1005.23
2022-12-12T09:44:33.966Z,1005.25
2022-12-12T09:45:34.001Z,1005.25
2022-12-12T09:46:33.939Z,1005.29
2022-12-12T09:47:33.928Z,1005.29
2022-12-12T09:48:33.914Z,1005.33
2022-12-12T09:49:38.401Z,1005.24
2022-12-12T09:50:33.892Z,1005.24
2022-12-12T09:51:33.883Z,1005.23
2022-12-12T09:52:33.874Z,1005.21
2022-12-12T09:53:33.861Z,1005.20
2022-12-12T09:54:33.855Z,1005.22
2022-12-12T09:55:33.847Z,1005.17
2022-12-12T09:56:33.822Z,1005.20
2022-12-12T09:57:33.811Z,1005.23
2022-12-12T09:58:33.802Z,1005.24
2022-12-12T09:59:33.825Z,1005.26
2022-12-12T10:00:33.832Z,1005.29
2022-12-12T10:01:33.762Z,1005.27
2022-12-12T10:02:33.775Z,1005.32
2022-12-12T10:03:33.746Z,1005.37
2022-12-12T10:04:33.732Z,1005.37
2022-12-12T10:05:33.721Z,1005.34
2022-12-12T10:06:38.079Z,1005.41
2022-12-12T10:07:33.705Z,1005.35
2022-12-12T10:08:33.785Z,1005.34
2022-12-12T10:09:33.680Z,1005.39
2022-12-12T10:10:33.671Z,1005.37
2022-12-12T10:11:33.664Z,1005.37
2022-12-12T10:12:33.654Z,1005.38
2022-12-12T10:13:33.647Z,1005.38
2022-12-12T10:14:33.635Z,1005.41
2022-12-12T10:15:33.625Z,1005.38
2022-12-12T10:16:33.664Z,1005.43
2022-12-12T10:17:33.612Z,1005.42
2022-12-12T10:18:33.618Z,1005.36
2022-12-12T10:19:33.595Z,1005.41
2022-12-12T10:20:33.580Z,1005.43
2022-12-12T10:21:33.581Z,1005.36
2022-12-12T10:22:33.582Z,1005.38
2022-12-12T10:23:33.557Z,1005.42
2022-12-12T10:24:33.555Z,1005.41
2022-12-12T10:25:33.546Z,1005.45
2022-12-12T10:26:33.542Z,1005.43
2022-12-12T10:27:33.533Z,1005.40
2022-12-12T10:28:33.532Z,1005.41
2022-12-12T10:29:36.765Z,1005.36
2022-12-12T10:30:33.512Z,1005.28
2022-12-12T10:31:33.595Z,1005.28
2022-12-12T10:32:33.505Z,1005.32
2022-12-12T10:33:33.490Z,1005.32
2022-12-12T10:34:33.483Z,1005.27
2022-12-12T10:35:33.709Z,1005.32
2022-12-12T10:36:33.468Z,1005.36
2022-12-12T10:37:33.458Z,1005.34
2022-12-12T10:38:33.456Z,1005.36
2022-12-12T10:39:33.444Z,1005.32
2022-12-12T10:40:33.434Z,1005.31
2022-12-12T10:41:33.424Z,1005.30
2022-12-12T10:42:33.411Z,1005.35
2022-12-12T10:43:33.411Z,1005.35
2022-12-12T10:44:33.398Z,1005.35
2022-12-12T10:45:33.438Z,1005.31
2022-12-12T10:46:33.499Z,1005.33
2022-12-12T10:47:33.386Z,1005.30
2022-12-12T10:48:33.380Z,1005.26
2022-12-12T10:49:33.365Z,1005.25
2022-12-12T10:50:33.349Z,1005.34
2022-12-12T10:51:33.348Z,1005.33
2022-12-12T10:52:33.338Z,1005.27
2022-12-12T10:53:33.353Z,1005.23
2022-12-12T10:54:33.330Z,1005.27
2022-12-12T10:55:33.325Z,1005.25
2022-12-12T10:56:33.320Z,1005.25
2022-12-12T10:57:33.306Z,1005.24
2022-12-12T10:58:33.301Z,1005.23
2022-12-12T10:59:33.292Z,1005.25
2022-12-12T11:00:33.290Z,1005.21
2022-12-12T11:02:07.597Z,1005.12
2022-12-12T11:02:33.372Z,1005.18
2022-12-12T11:03:33.329Z,1005.14
2022-12-12T11:04:33.264Z,1005.13
2022-12-12T11:05:33.252Z,1005.10
2022-12-12T11:06:33.246Z,1005.06
2022-12-12T11:07:33.242Z,1005.05
2022-12-12T11:08:33.275Z,1005.04
2022-12-12T11:09:33.226Z,1005.05
2022-12-12T11:10:34.535Z,1005.09
2022-12-12T11:11:33.209Z,1005.15
2022-12-12T11:12:33.206Z,1005.15
2022-12-12T11:13:33.199Z,1005.17
2022-12-12T11:14:33.192Z,1005.18
2022-12-12T11:15:33.190Z,1005.14
2022-12-12T11:16:33.214Z,1005.17
2022-12-12T11:17:33.163Z,1005.15
2022-12-12T11:18:33.167Z,1005.16
2022-12-12T11:19:33.156Z,1005.19
2022-12-12T11:20:33.148Z,1005.13
2022-12-12T11:21:33.180Z,1005.15
2022-12-12T11:22:33.137Z,1005.15
2022-12-12T11:23:33.136Z,1005.13
2022-12-12T11:24:33.127Z,1005.11
2022-12-12T11:25:33.123Z,1005.17
2022-12-12T11:26:33.112Z,1005.15
2022-12-12T11:27:33.110Z,1005.13
2022-12-12T11:28:33.104Z,1005.13
2022-12-12T11:29:33.116Z,1005.14
2022-12-12T11:30:33.086Z,1005.13
2022-12-12T11:31:33.220Z,1005.14
2022-12-12T11:32:33.076Z,1005.12
2022-12-12T11:33:33.072Z,1005.12
2022-12-12T11:34:34.128Z,1005.07
2022-12-12T11:35:33.066Z,1005.06
2022-12-12T11:36:33.059Z,1005.04
2022-12-12T11:37:33.051Z,1005.02
2022-12-12T11:38:33.041Z,1004.98
2022-12-12T11:39:33.040Z,1004.99
2022-12-12T11:40:33.045Z,1004.93
2022-12-12T11:41:33.027Z,1004.95
2022-12-12T11:42:33.019Z,1004.97
2022-12-12T11:43:33.008Z,1004.95
2022-12-12T11:44:33.012Z,1004.96
2022-12-12T11:45:33.047Z,1004.93
2022-12-12T11:46:33.001Z,1004.93
2022-12-12T11:47:32.998Z,1004.91
2022-12-12T11:48:32.987Z,1004.94
2022-12-12T11:49:32.982Z,1004.92
2022-12-12T11:50:32.979Z,1004.90
2022-12-12T11:51:32.963Z,1004.89
2022-12-12T11:52:32.965Z,1004.87
2022-12-12T11:53:32.962Z,1004.93
2022-12-12T11:54:32.952Z,1004.90
2022-12-12T11:55:32.948Z,1004.87
2022-12-12T11:56:32.948Z,1004.86
2022-12-12T11:57:32.944Z,1004.82
2022-12-12T11:58:32.931Z,1004.78
2022-12-12T11:59:32.921Z,1004.83
2022-12-12T12:00:32.928Z,1004.79
2022-12-12T12:01:32.941Z,1004.77
2022-12-12T12:02:32.922Z,1004.77
2022-12-12T12:03:32.952Z,1004.78
2022-12-12T12:04:32.941Z,1004.73
2022-12-12T12:05:32.896Z,1004.76
2022-12-12T12:06:32.887Z,1004.79
2022-12-12T12:07:32.888Z,1004.72
2022-12-12T12:08:32.928Z,1004.72
2022-12-12T12:09:32.875Z,1004.67
2022-12-12T12:10:32.869Z,1004.67
2022-12-12T12:11:32.858Z,1004.67
2022-12-12T12:12:32.873Z,1004.64
2022-12-12T12:13:32.843Z,1004.63
2022-12-12T12:14:32.847Z,1004.61
2022-12-12T12:15:32.848Z,1004.64
2022-12-12T12:16:32.906Z,1004.61
2022-12-12T12:17:32.833Z,1004.65
2022-12-12T12:18:32.833Z,1004.60
2022-12-12T12:19:32.828Z,1004.60
2022-12-12T12:20:32.824Z,1004.64
2022-12-12T12:21:32.809Z,1004.58
2022-12-12T12:22:32.805Z,1004.60
2022-12-12T12:23:37.658Z,1004.58
2022-12-12T12:24:32.794Z,1004.58
2022-12-12T12:25:32.798Z,1004.58
2022-12-12T12:26:32.786Z,1004.57
2022-12-12T12:27:32.780Z,1004.55
2022-12-12T12:28:32.779Z,1004.57
2022-12-12T12:29:32.774Z,1004.57
2022-12-12T12:30:32.832Z,1004.53
2022-12-12T12:31:32.759Z,1004.57
2022-12-12T12:32:32.749Z,1004.56
2022-12-12T12:33:32.755Z,1004.54
2022-12-12T12:34:32.745Z,1004.55
2022-12-12T12:35:32.744Z,1004.55
2022-12-12T12:36:32.738Z,1004.49
2022-12-12T12:37:33.610Z,1004.51
2022-12-12T12:38:32.732Z,1004.49
2022-12-12T12:39:32.736Z,1004.46
2022-12-12T12:40:32.715Z,1004.46
2022-12-12T12:41:32.713Z,1004.48
2022-12-12T12:42:32.703Z,1004.49
2022-12-12T12:43:32.711Z,1004.47
2022-12-12T12:44:32.696Z,1004.44
2022-12-12T12:45:32.690Z,1004.42
2022-12-12T12:46:32.711Z,1004.37
2022-12-12T12:47:32.670Z,1004.38
2022-12-12T12:48:32.673Z,1004.35
2022-12-12T12:49:32.663Z,1004.30
2022-12-12T12:50:32.673Z,1004.32
2022-12-12T12:51:32.664Z,1004.28
2022-12-12T12:52:32.654Z,1004.20
2022-12-12T12:53:32.650Z,1004.21
2022-12-12T12:54:32.629Z,1004.20
2022-12-12T12:55:32.627Z,1004.24
2022-12-12T12:56:32.620Z,1004.19
2022-12-12T12:57:32.618Z,1004.20
2022-12-12T12:58:32.601Z,1004.24
2022-12-12T12:59:32.601Z,1004.25
2022-12-12T13:00:32.596Z,1004.21
2022-12-12T13:01:32.665Z,1004.21
2022-12-12T13:02:32.597Z,1004.14
2022-12-12T13:03:32.572Z,1004.18
2022-12-12T13:04:32.566Z,1004.17
2022-12-12T13:05:32.549Z,1004.14
2022-12-12T13:06:32.546Z,1004.16
2022-12-12T13:07:36.153Z,1004.18
2022-12-12T13:08:32.626Z,1004.14
2022-12-12T13:09:32.518Z,1004.17
2022-12-12T13:10:32.508Z,1004.14